createdAt,value
2018-10-09T00:01:17.689Z,23.02
2018-10-09T00:03:46.060Z,24.80
2018-10-09T00:06:14.876Z,24.50
2018-10-09T00:08:44.537Z,23.95
2018-10-09T00:11:13.050Z,25.27
2018-10-09T00:13:41.424Z,26.45
2018-10-09T00:16:09.861Z,24.80
2018-10-09T00:18:38.209Z,26.97
2018-10-09T00:21:06.495Z,25.55
2018-10-09T00:23:34.763Z,26.90
2018-10-09T00:26:03.501Z,27.85
2018-10-09T00:28:31.749Z,35.85
2018-10-09T00:31:00.186Z,25.75
2018-10-09T00:33:28.435Z,27.20
2018-10-09T00:35:57.524Z,29.70
2018-10-09T00:38:25.438Z,28.57
2018-10-09T00:40:53.830Z,30.95
2018-10-09T00:43:22.384Z,30.85
2018-10-09T00:45:51.085Z,29.60
2018-10-09T00:48:19.647Z,30.92
2018-10-09T00:50:48.099Z,33.85
2018-10-09T00:53:16.524Z,36.55
2018-10-09T00:55:44.785Z,37.45
2018-10-09T00:58:13.307Z,40.08
2018-10-09T01:00:41.650Z,45.58
2018-10-09T01:03:09.908Z,44.05
2018-10-09T01:05:38.412Z,42.05
2018-10-09T01:08:06.605Z,38.38
2018-10-09T01:10:35.150Z,36.95
2018-10-09T01:13:03.408Z,36.93
2018-10-09T01:15:32.204Z,38.65
2018-10-09T01:18:00.482Z,35.13
2018-10-09T01:20:33.080Z,33.67
2018-10-09T01:23:03.508Z,35.70
2018-10-09T01:25:32.209Z,37.63
2018-10-09T01:28:00.678Z,39.80
2018-10-09T01:30:28.921Z,37.08
2018-10-09T01:32:57.273Z,37.90
2018-10-09T01:35:25.681Z,30.17
2018-10-09T01:37:54.073Z,36.83
2018-10-09T01:40:22.199Z,35.58
2018-10-09T01:42:50.757Z,35.55
2018-10-09T01:45:19.239Z,35.98
2018-10-09T01:47:47.605Z,37.75
2018-10-09T01:50:15.996Z,36.25
2018-10-09T01:52:44.537Z,35.98
2018-10-09T01:55:12.910Z,34.30
2018-10-09T01:57:41.064Z,34.43
2018-10-09T02:00:10.436Z,35.65
2018-10-09T02:02:38.918Z,38.60
2018-10-09T02:05:07.161Z,42.35
2018-10-09T02:07:35.419Z,38.25
2018-10-09T02:10:03.948Z,39.20
2018-10-09T02:12:32.627Z,34.80
2018-10-09T02:15:00.878Z,32.98
2018-10-09T02:17:29.412Z,32.00
2018-10-09T02:19:57.818Z,28.02
2018-10-09T02:22:26.038Z,29.25
2018-10-09T02:24:54.087Z,26.62
2018-10-09T02:27:22.860Z,27.40
2018-10-09T02:29:51.448Z,27.35
2018-10-09T02:32:19.928Z,24.65
2018-10-09T02:34:48.131Z,25.08
2018-10-09T02:37:16.339Z,24.60
2018-10-09T02:39:44.747Z,24.50
2018-10-09T02:42:13.444Z,25.92
2018-10-09T02:44:41.718Z,23.75
2018-10-09T02:47:10.087Z,25.12
2018-10-09T02:49:38.493Z,24.95
2018-10-09T02:52:06.856Z,22.95
2018-10-09T02:54:35.245Z,25.40
2018-10-09T02:57:03.686Z,26.10
2018-10-09T02:59:32.394Z,22.22
2018-10-09T03:02:00.781Z,24.32
2018-10-09T03:04:29.047Z,23.75
2018-10-09T03:06:57.212Z,23.20
2018-10-09T03:09:25.516Z,25.15
2018-10-09T03:11:53.973Z,23.75
2018-10-09T03:14:22.671Z,25.92
2018-10-09T03:16:51.907Z,24.27
2018-10-09T03:19:20.224Z,23.35
2018-10-09T03:21:48.323Z,21.73
2018-10-09T03:24:16.341Z,19.25
2018-10-09T03:26:45.008Z,20.30
2018-10-09T03:29:13.156Z,18.85
2018-10-09T03:31:41.114Z,19.90
2018-10-09T03:34:09.568Z,19.15
2018-10-09T03:36:38.085Z,19.65
2018-10-09T03:39:07.081Z,17.85
2018-10-09T03:41:35.420Z,23.32
2018-10-09T03:44:04.022Z,20.27
2018-10-09T03:46:32.498Z,21.73
2018-10-09T03:49:01.000Z,22.45
2018-10-09T03:51:29.601Z,22.30
2018-10-09T03:53:58.280Z,25.32
2018-10-09T03:56:26.707Z,22.07
2018-10-09T03:58:55.527Z,21.60
2018-10-09T04:01:23.992Z,21.17
2018-10-09T04:03:52.676Z,19.12
2018-10-09T04:06:21.095Z,19.32
2018-10-09T04:08:49.646Z,19.98
2018-10-09T04:11:18.104Z,21.77
2018-10-09T04:13:47.261Z,21.55
2018-10-09T04:16:15.568Z,23.57
2018-10-09T04:18:44.133Z,18.95
2018-10-09T04:21:12.466Z,22.22
2018-10-09T04:23:40.675Z,22.17
2018-10-09T04:26:09.342Z,22.13
2018-10-09T04:28:38.092Z,21.20
2018-10-09T04:31:06.487Z,20.92
2018-10-09T04:33:35.003Z,22.65
2018-10-09T04:36:03.383Z,27.25
2018-10-09T04:38:31.828Z,24.43
2018-10-09T04:41:00.211Z,26.05
2018-10-09T04:43:28.381Z,25.80
2018-10-09T04:45:56.968Z,26.33
2018-10-09T04:48:25.273Z,25.65
2018-10-09T04:50:54.948Z,30.80
2018-10-09T04:53:23.339Z,28.50
2018-10-09T04:55:52.006Z,35.33
2018-10-09T04:58:20.451Z,30.48
2018-10-09T05:00:49.428Z,25.35
2018-10-09T05:03:17.811Z,25.80
2018-10-09T05:05:45.951Z,24.90
2018-10-09T05:08:14.003Z,27.05
2018-10-09T05:10:42.320Z,25.92
2018-10-09T05:13:10.664Z,24.40
2018-10-09T05:15:39.140Z,22.60
2018-10-09T05:18:07.447Z,21.52
2018-10-09T05:20:35.805Z,23.38
2018-10-09T05:23:04.145Z,24.07
2018-10-09T05:25:32.453Z,24.32
2018-10-09T05:28:00.843Z,26.93
2018-10-09T05:30:29.325Z,23.12
2018-10-09T05:32:57.563Z,25.10
2018-10-09T05:35:25.700Z,25.52
2018-10-09T05:37:53.859Z,22.90
2018-10-09T05:40:22.274Z,21.33
2018-10-09T05:42:50.992Z,19.25
2018-10-09T05:45:19.604Z,19.00
2018-10-09T05:47:47.848Z,22.80
2018-10-09T05:50:16.433Z,20.37
2018-10-09T05:52:44.936Z,21.07
2018-10-09T05:55:13.301Z,20.55
2018-10-09T05:57:41.806Z,23.30
2018-10-09T06:00:10.691Z,28.40
2018-10-09T06:02:39.103Z,23.15
2018-10-09T06:05:07.883Z,26.70
2018-10-09T06:07:36.896Z,23.95
2018-10-09T06:10:05.204Z,23.83
2018-10-09T06:12:33.579Z,24.18
2018-10-09T06:15:01.976Z,25.57
2018-10-09T06:17:30.347Z,31.05
2018-10-09T06:19:58.720Z,25.35
2018-10-09T06:22:27.136Z,24.77
2018-10-09T06:24:55.477Z,24.93
2018-10-09T06:27:23.865Z,26.10
2018-10-09T06:29:52.145Z,25.90
2018-10-09T06:32:21.060Z,26.47
2018-10-09T06:34:49.513Z,27.20
2018-10-09T06:37:17.889Z,24.67
2018-10-09T06:39:47.244Z,28.27
2018-10-09T06:42:15.625Z,27.60
2018-10-09T06:44:44.452Z,25.40
2018-10-09T06:47:12.723Z,26.27
2018-10-09T06:49:41.129Z,24.70
2018-10-09T06:52:09.392Z,21.80
2018-10-09T06:54:37.977Z,23.37
2018-10-09T06:57:06.265Z,22.53
2018-10-09T06:59:35.722Z,24.90
2018-10-09T07:02:03.852Z,23.20
2018-10-09T07:04:32.182Z,23.63
2018-10-09T07:07:00.405Z,25.80
2018-10-09T07:09:28.744Z,21.90
2018-10-09T07:11:57.700Z,23.90
2018-10-09T07:14:26.012Z,23.20
2018-10-09T07:16:54.613Z,24.90
2018-10-09T07:19:22.806Z,23.87
2018-10-09T07:21:51.149Z,25.40
2018-10-09T07:24:19.644Z,25.77
2018-10-09T07:26:48.459Z,25.03
2018-10-09T07:29:16.603Z,25.13
2018-10-09T07:31:44.769Z,24.57
2018-10-09T07:34:12.816Z,22.40
2018-10-09T07:36:41.530Z,21.57
2018-10-09T07:39:12.289Z,22.97
2018-10-09T07:41:41.039Z,20.23
2018-10-09T07:44:09.143Z,16.67
2018-10-09T07:46:37.331Z,20.60
2018-10-09T07:49:05.483Z,12.73
2018-10-09T07:51:33.993Z,13.53
2018-10-09T07:54:02.315Z,14.27
2018-10-09T07:56:30.783Z,15.10
2018-10-09T07:58:59.043Z,13.83
2018-10-09T08:01:27.452Z,11.70
2018-10-09T08:03:55.749Z,8.83
2018-10-09T08:06:24.213Z,10.23
2018-10-09T08:08:52.557Z,10.83
2018-10-09T08:11:20.856Z,8.40
2018-10-09T08:13:49.245Z,11.83
2018-10-09T08:16:17.472Z,7.97
2018-10-09T08:18:46.086Z,8.73
2018-10-09T08:21:14.497Z,9.37
2018-10-09T08:23:42.963Z,12.90
2018-10-09T08:26:11.735Z,8.67
2018-10-09T08:28:39.923Z,9.30
2018-10-09T08:31:08.179Z,8.03
2018-10-09T08:33:36.901Z,10.17
2018-10-09T08:36:05.264Z,7.93
2018-10-09T08:38:33.567Z,6.90
2018-10-09T08:41:02.132Z,7.00
2018-10-09T08:43:31.391Z,6.43
2018-10-09T08:45:59.701Z,6.43
2018-10-09T08:48:27.976Z,9.40
2018-10-09T08:50:55.935Z,6.80
2018-10-09T08:53:24.352Z,7.00
2018-10-09T08:55:52.606Z,7.90
2018-10-09T08:58:20.569Z,8.07
2018-10-09T09:00:49.272Z,7.70
2018-10-09T09:03:17.346Z,8.90
2018-10-09T09:05:45.313Z,6.50
2018-10-09T09:08:13.260Z,6.53
2018-10-09T09:10:41.229Z,5.20
2018-10-09T09:13:09.224Z,5.50
2018-10-09T09:15:37.492Z,8.00
2018-10-09T09:18:05.552Z,5.87
2018-10-09T09:20:34.187Z,8.23
2018-10-09T09:23:02.288Z,5.80
2018-10-09T09:25:30.600Z,5.40
2018-10-09T09:28:00.118Z,7.00
2018-10-09T09:30:28.559Z,6.70
2018-10-09T09:32:56.752Z,4.30
2018-10-09T09:35:25.212Z,12.37
2018-10-09T09:37:53.737Z,4.17
2018-10-09T09:40:21.880Z,4.53
2018-10-09T09:42:50.229Z,4.10
2018-10-09T09:45:18.242Z,5.20
2018-10-09T09:47:46.756Z,5.10
2018-10-09T09:50:16.009Z,5.40
2018-10-09T09:52:44.088Z,7.80
2018-10-09T09:55:12.056Z,7.70
2018-10-09T09:57:40.224Z,5.63
2018-10-09T10:01:11.651Z,3.43
2018-10-09T10:03:40.994Z,5.47
2018-10-09T10:06:09.293Z,4.60
2018-10-09T10:08:38.057Z,4.37
2018-10-09T10:11:06.807Z,5.80
2018-10-09T10:13:35.616Z,5.27
2018-10-09T10:16:04.469Z,5.13
2018-10-09T10:18:32.790Z,5.43
2018-10-09T10:21:00.777Z,5.53
2018-10-09T10:23:29.243Z,5.20
2018-10-09T10:25:57.912Z,4.70
2018-10-09T10:28:26.308Z,11.60
2018-10-09T10:30:54.715Z,4.20
2018-10-09T10:33:23.136Z,7.50
2018-10-09T10:35:51.324Z,5.77
2018-10-09T10:38:19.580Z,4.30
2018-10-09T10:40:48.337Z,6.13
2018-10-09T10:43:16.569Z,6.03
2018-10-09T10:45:45.065Z,4.07
2018-10-09T10:48:13.217Z,7.40
2018-10-09T10:50:41.768Z,9.50
2018-10-09T10:53:10.319Z,6.40
2018-10-09T10:55:38.471Z,4.87
2018-10-09T10:58:07.147Z,7.03
2018-10-09T11:00:35.837Z,6.80
2018-10-09T11:03:04.720Z,5.57
2018-10-09T11:05:33.208Z,4.93
2018-10-09T11:08:02.016Z,4.53
2018-10-09T11:10:30.286Z,5.97
2018-10-09T11:12:59.468Z,6.30
2018-10-09T11:15:28.563Z,9.33
2018-10-09T11:17:56.550Z,4.90
2018-10-09T11:20:25.112Z,4.70
2018-10-09T11:22:53.404Z,5.83
2018-10-09T11:25:21.828Z,7.63
2018-10-09T11:27:50.041Z,4.23
2018-10-09T11:30:19.331Z,9.13
2018-10-09T11:32:47.613Z,13.33
2018-10-09T11:35:16.631Z,5.90
2018-10-09T11:37:44.683Z,8.27
2018-10-09T11:40:12.971Z,19.83
2018-10-09T11:42:41.426Z,9.80
2018-10-09T11:45:09.954Z,4.70
2018-10-09T11:47:37.888Z,6.40
2018-10-09T11:50:06.603Z,16.77
2018-10-09T11:52:34.629Z,8.60
2018-10-09T11:55:02.964Z,3.90
2018-10-09T11:57:31.684Z,3.57
2018-10-09T11:59:59.994Z,6.10
2018-10-09T12:02:28.674Z,5.53
2018-10-09T12:04:56.945Z,5.80
2018-10-09T12:07:25.440Z,4.07
2018-10-09T12:09:53.620Z,4.00
2018-10-09T12:12:21.794Z,3.83
2018-10-09T12:14:50.163Z,3.27
2018-10-09T12:17:18.703Z,4.33
2018-10-09T12:19:46.891Z,4.97
2018-10-09T12:22:14.944Z,5.07
2018-10-09T12:24:43.162Z,5.20
2018-10-09T12:27:12.327Z,5.10
2018-10-09T12:29:40.431Z,11.27
2018-10-09T12:32:09.208Z,3.60
2018-10-09T12:34:37.771Z,3.67
2018-10-09T12:37:06.904Z,3.47
2018-10-09T12:39:35.283Z,3.70
2018-10-09T12:42:03.982Z,5.03
2018-10-09T12:44:32.384Z,4.60
2018-10-09T12:47:00.745Z,4.33
2018-10-09T12:49:29.561Z,4.27
2018-10-09T12:51:57.733Z,5.70
2018-10-09T12:54:26.253Z,4.30
2018-10-09T12:56:54.344Z,3.90
2018-10-09T12:59:22.618Z,7.27
2018-10-09T13:01:50.993Z,9.60
2018-10-09T13:04:19.379Z,9.73
2018-10-09T13:06:47.670Z,6.23
2018-10-09T13:09:16.204Z,9.27
2018-10-09T13:11:44.376Z,4.40
2018-10-09T13:14:12.683Z,3.13
2018-10-09T13:16:40.982Z,4.80
2018-10-09T13:19:09.933Z,4.23
2018-10-09T13:21:39.619Z,3.30
2018-10-09T13:24:08.115Z,6.90
2018-10-09T13:26:36.467Z,5.40
2018-10-09T13:29:05.301Z,4.13
2018-10-09T13:31:34.079Z,5.03
2018-10-09T13:34:02.471Z,4.30
2018-10-09T13:36:30.626Z,4.00
2018-10-09T13:38:58.833Z,10.50
2018-10-09T13:41:27.489Z,6.83
2018-10-09T13:43:55.947Z,5.30
2018-10-09T13:46:24.152Z,3.83
2018-10-09T13:48:52.621Z,5.13
2018-10-09T13:51:20.662Z,5.50
2018-10-09T13:53:48.992Z,3.37
2018-10-09T13:56:17.460Z,8.10
2018-10-09T13:58:45.721Z,4.10
2018-10-09T14:01:13.771Z,4.97
2018-10-09T14:03:42.082Z,5.27
2018-10-09T14:06:10.306Z,4.53
2018-10-09T14:08:38.353Z,6.77
2018-10-09T14:11:07.955Z,4.63
2018-10-09T14:13:36.423Z,4.83
2018-10-09T14:16:04.694Z,9.63
2018-10-09T14:18:33.237Z,5.00
2018-10-09T14:21:01.432Z,4.00
2018-10-09T14:23:29.921Z,4.33
2018-10-09T14:25:58.400Z,8.67
2018-10-09T14:28:26.801Z,7.77
2018-10-09T14:30:54.993Z,4.10
2018-10-09T14:33:23.348Z,4.60
2018-10-09T14:35:51.912Z,10.90
2018-10-09T14:38:20.076Z,4.77
2018-10-09T14:40:48.869Z,7.93
2018-10-09T14:43:16.780Z,6.77
2018-10-09T14:45:45.379Z,4.80
2018-10-09T14:48:14.021Z,5.37
2018-10-09T14:50:42.411Z,4.00
2018-10-09T14:53:11.120Z,4.00
2018-10-09T14:55:39.692Z,9.33
2018-10-09T14:58:08.449Z,4.63
2018-10-09T15:00:37.211Z,3.83
2018-10-09T15:03:05.440Z,6.80
2018-10-09T15:05:33.905Z,5.40
2018-10-09T15:08:02.572Z,8.20
2018-10-09T15:10:30.857Z,7.43
2018-10-09T15:12:59.549Z,5.97
2018-10-09T15:15:27.907Z,5.80
2018-10-09T15:17:56.232Z,10.03
2018-10-09T15:20:24.773Z,5.90
2018-10-09T15:22:53.491Z,6.90
2018-10-09T15:25:21.843Z,6.80
2018-10-09T15:27:50.108Z,5.10
2018-10-09T15:30:18.615Z,5.03
2018-10-09T15:32:46.874Z,6.43
2018-10-09T15:35:17.011Z,5.00
2018-10-09T15:37:45.283Z,5.30
2018-10-09T15:40:13.644Z,9.10
2018-10-09T15:42:42.055Z,6.00
2018-10-09T15:45:10.510Z,4.43
2018-10-09T15:47:38.684Z,4.73
2018-10-09T15:50:07.057Z,11.03
2018-10-09T15:52:35.509Z,5.87
2018-10-09T15:55:03.809Z,5.67
2018-10-09T15:57:31.891Z,7.13
2018-10-09T16:00:00.380Z,7.33
2018-10-09T16:02:28.755Z,6.15
2018-10-09T16:04:57.041Z,8.45
2018-10-09T16:07:24.980Z,6.50
2018-10-09T16:09:53.279Z,7.25
2018-10-09T16:12:21.535Z,12.45
2018-10-09T16:14:49.517Z,6.90
2018-10-09T16:17:17.829Z,7.42
2018-10-09T16:19:46.067Z,13.35
2018-10-09T16:22:14.408Z,6.95
2018-10-09T16:24:42.501Z,7.47
2018-10-09T16:27:10.984Z,7.78
2018-10-09T16:29:39.374Z,7.40
2018-10-09T16:32:07.641Z,9.28
2018-10-09T16:34:36.244Z,10.70
2018-10-09T16:37:04.799Z,8.78
2018-10-09T16:39:33.213Z,8.10
2018-10-09T16:42:01.516Z,10.48
2018-10-09T16:44:30.740Z,8.05
2018-10-09T16:47:03.503Z,7.58
2018-10-09T16:49:34.051Z,8.83
2018-10-09T16:52:02.492Z,12.15
2018-10-09T16:54:30.841Z,10.38
2018-10-09T16:56:59.485Z,12.37
2018-10-09T16:59:27.748Z,16.40
2018-10-09T17:01:56.068Z,12.58
2018-10-09T17:04:24.468Z,17.52
2018-10-09T17:06:52.783Z,16.42
2018-10-09T17:09:20.985Z,27.65
2018-10-09T17:11:49.688Z,25.70
2018-10-09T17:14:18.509Z,23.77
2018-10-09T17:16:46.726Z,27.05
2018-10-09T17:19:15.125Z,26.30
2018-10-09T17:21:43.088Z,27.58
2018-10-09T17:24:11.345Z,25.88
2018-10-09T17:26:40.085Z,24.47
2018-10-09T17:29:08.442Z,25.15
2018-10-09T17:31:36.830Z,30.55
2018-10-09T17:34:04.975Z,31.97
2018-10-09T17:36:33.181Z,36.17
2018-10-09T17:39:01.650Z,36.33
2018-10-09T17:41:30.359Z,33.55
2018-10-09T17:43:58.496Z,34.67
2018-10-09T17:46:27.165Z,35.10
2018-10-09T17:48:55.263Z,33.13
2018-10-09T17:51:23.732Z,35.70
2018-10-09T17:53:51.840Z,33.02
2018-10-09T17:56:20.288Z,34.43
2018-10-09T17:58:48.704Z,36.15
2018-10-09T18:01:17.677Z,36.35
2018-10-09T18:03:46.008Z,37.98
2018-10-09T18:06:14.378Z,39.67
2018-10-09T18:08:43.068Z,38.60
2018-10-09T18:11:11.544Z,35.90
2018-10-09T18:13:41.124Z,35.90
2018-10-09T18:16:09.572Z,37.70
2018-10-09T18:18:37.664Z,36.03
2018-10-09T18:21:06.172Z,35.23
2018-10-09T18:23:34.672Z,39.67
2018-10-09T18:26:03.041Z,41.13
2018-10-09T18:28:31.271Z,42.17
2018-10-09T18:30:59.932Z,50.23
2018-10-09T18:33:27.939Z,49.98
2018-10-09T18:35:56.408Z,44.35
2018-10-09T18:38:24.680Z,37.65
2018-10-09T18:40:53.200Z,37.73
2018-10-09T18:43:21.640Z,30.80
2018-10-09T18:45:49.884Z,30.60
2018-10-09T18:48:18.399Z,23.83
2018-10-09T18:50:46.659Z,24.20
2018-10-09T18:53:15.666Z,21.68
2018-10-09T18:55:44.059Z,20.02
2018-10-09T18:58:12.121Z,17.00
2018-10-09T19:00:40.624Z,15.88
2018-10-09T19:03:08.981Z,22.65
2018-10-09T19:05:37.105Z,17.02
2018-10-09T19:08:05.336Z,17.77
2018-10-09T19:10:33.787Z,18.92
2018-10-09T19:13:02.347Z,18.40
2018-10-09T19:15:30.544Z,19.05
2018-10-09T19:17:59.345Z,19.00
2018-10-09T19:20:27.676Z,20.43
2018-10-09T19:22:55.907Z,19.98
2018-10-09T19:25:24.281Z,19.65
2018-10-09T19:27:52.639Z,20.95
2018-10-09T19:30:21.148Z,22.10
2018-10-09T19:32:49.673Z,22.05
2018-10-09T19:35:17.892Z,20.02
2018-10-09T19:37:46.141Z,18.57
2018-10-09T19:40:14.400Z,18.52
2018-10-09T19:42:42.730Z,20.70
2018-10-09T19:45:11.389Z,20.30
2018-10-09T19:47:39.801Z,22.37
2018-10-09T19:50:08.764Z,22.35
2018-10-09T19:52:37.279Z,23.47
2018-10-09T19:55:06.031Z,24.35
2018-10-09T19:57:34.525Z,30.92
2018-10-09T20:00:03.482Z,32.83
2018-10-09T20:02:31.364Z,28.12
2018-10-09T20:05:00.048Z,32.60
2018-10-09T20:07:28.257Z,34.05
2018-10-09T20:09:56.625Z,29.57
2018-10-09T20:12:25.131Z,29.57
2018-10-09T20:14:53.853Z,29.75
2018-10-09T20:17:22.141Z,31.93
2018-10-09T20:19:50.421Z,30.12
2018-10-09T20:22:18.511Z,32.80
2018-10-09T20:24:46.992Z,33.30
2018-10-09T20:27:15.153Z,31.90
2018-10-09T20:29:44.914Z,31.62
2018-10-09T20:32:13.285Z,32.70
2018-10-09T20:34:41.797Z,30.45
2018-10-09T20:37:09.900Z,30.08
2018-10-09T20:39:38.058Z,30.32
2018-10-09T20:42:06.559Z,31.40
2018-10-09T20:44:34.928Z,29.85
2018-10-09T20:47:04.092Z,29.85
2018-10-09T20:49:32.216Z,32.50
2018-10-09T20:52:00.308Z,29.80
2018-10-09T20:54:28.701Z,34.60
2018-10-09T20:56:57.552Z,39.88
2018-10-09T21:00:29.128Z,31.48
2018-10-09T21:02:57.516Z,38.00
2018-10-09T21:05:26.162Z,32.65
2018-10-09T21:07:54.588Z,35.03
2018-10-09T21:10:22.778Z,34.13
2018-10-09T21:12:51.443Z,36.42
2018-10-09T21:15:20.349Z,33.80
2018-10-09T21:17:48.784Z,33.70
2018-10-09T21:20:16.983Z,31.60
2018-10-09T21:22:45.309Z,33.78
2018-10-09T21:25:14.125Z,34.78
2018-10-09T21:27:42.183Z,34.63
2018-10-09T21:30:10.385Z,32.40
2018-10-09T21:32:38.649Z,34.80
2018-10-09T21:35:07.523Z,35.65
2018-10-09T21:37:36.000Z,35.50
2018-10-09T21:40:03.979Z,36.42
2018-10-09T21:42:32.360Z,40.23
2018-10-09T21:45:01.150Z,39.23
2018-10-09T21:47:29.550Z,34.90
2018-10-09T21:49:58.207Z,37.03
2018-10-09T21:52:26.532Z,34.80
2018-10-09T21:54:54.855Z,36.48
2018-10-09T21:57:23.559Z,34.83
2018-10-09T21:59:52.070Z,33.50
2018-10-09T22:02:20.405Z,31.15
2018-10-09T22:04:49.151Z,31.60
2018-10-09T22:07:18.474Z,35.28
2018-10-09T22:09:46.849Z,29.77
2018-10-09T22:12:14.951Z,29.90
2018-10-09T22:14:43.408Z,27.82
2018-10-09T22:17:11.624Z,34.08
2018-10-09T22:19:40.008Z,32.83
2018-10-09T22:22:08.184Z,31.52
2018-10-09T22:24:36.493Z,32.65
2018-10-09T22:27:04.707Z,34.53
2018-10-09T22:29:32.993Z,32.15
2018-10-09T22:32:01.156Z,35.52
2018-10-09T22:34:29.698Z,32.67
2018-10-09T22:36:57.907Z,33.92
2018-10-09T22:39:26.285Z,34.65
2018-10-09T22:41:55.205Z,34.75
2018-10-09T22:44:23.275Z,38.50
2018-10-09T22:46:51.540Z,44.05
2018-10-09T22:49:19.912Z,50.50
2018-10-09T22:51:48.353Z,49.05
2018-10-09T22:54:16.991Z,45.88
2018-10-09T22:56:45.564Z,54.55
2018-10-09T22:59:13.852Z,46.95
2018-10-09T23:01:42.323Z,49.35
2018-10-09T23:04:11.241Z,44.83
2018-10-09T23:06:39.821Z,49.27
2018-10-09T23:09:09.872Z,45.33
2018-10-09T23:11:38.077Z,47.53
2018-10-09T23:14:06.530Z,48.40
2018-10-09T23:16:34.918Z,46.95
2018-10-09T23:19:03.182Z,45.28
2018-10-09T23:21:31.903Z,47.27
2018-10-09T23:24:00.967Z,46.80
2018-10-09T23:26:29.530Z,49.33
2018-10-09T23:28:58.275Z,46.85
2018-10-09T23:31:26.597Z,48.90
2018-10-09T23:33:54.910Z,43.87
2018-10-09T23:36:23.411Z,45.98
2018-10-09T23:38:51.817Z,43.30
2018-10-09T23:41:19.977Z,47.65
2018-10-09T23:43:48.567Z,44.13
2018-10-09T23:46:16.784Z,45.12
2018-10-09T23:48:45.210Z,43.05
2018-10-09T23:51:13.687Z,45.52
2018-10-09T23:53:41.952Z,44.77
2018-10-09T23:56:10.484Z,47.45
2018-10-09T23:58:39.413Z,44.98
